Time;durP1;ratioP1;P1;durP2;ratioP2;P2;SDS_P1;SDS_P2;PMS_P1;PMS_P2;Temp;Humidity;BMP_temperature;BMP_pressure;BME280_temperature;BME280_humidity;BME280_pressure;Samples;Min_cycle;Max_cycle;Signal;HPM_P1;HPM_P2
2023/11/29 00:00:21;;;;;;;8.77;4.63;;;-0.70;99.90;;;;;;2063819;28;20242;-82
2023/11/29 00:01:21;;;;;;;8.02;5.13;;;-0.70;99.90;;;;;;2067426;28;20229;-82
2023/11/29 00:02:22;;;;;;;6.43;4.23;;;-0.80;99.90;;;;;;2069897;28;20233;-83
2023/11/29 00:03:23;;;;;;;6.77;4.47;;;-0.80;99.90;;;;;;2067276;28;20714;-83
2023/11/29 00:04:23;;;;;;;8.03;4.63;;;-0.80;99.90;;;;;;2060242;28;20341;-83
2023/11/29 00:05:24;;;;;;;7.20;4.57;;;-0.90;99.90;;;;;;2072449;28;20384;-83
2023/11/29 00:06:25;;;;;;;6.47;4.20;;;-1.10;99.90;;;;;;2081317;28;20316;-83
2023/11/29 00:07:25;;;;;;;6.90;4.47;;;-1.10;99.90;;;;;;2073133;28;20240;-84
2023/11/29 00:08:26;;;;;;;6.53;4.27;;;-1.10;99.90;;;;;;2059646;28;20322;-84
2023/11/29 00:09:27;;;;;;;5.33;3.70;;;-1.10;99.90;;;;;;2061920;28;20222;-83
2023/11/29 00:10:27;;;;;;;8.37;4.43;;;-1.10;99.90;;;;;;2086285;28;20232;-83
2023/11/29 00:11:28;;;;;;;6.73;4.00;;;-1.10;99.90;;;;;;2072770;28;20669;-83
2023/11/29 00:12:29;;;;;;;6.57;3.83;;;-1.10;99.90;;;;;;2054404;28;20253;-83
2023/11/29 00:13:29;;;;;;;7.30;3.80;;;-1.10;99.90;;;;;;2063400;28;20296;-83
2023/11/29 00:14:32;;;;;;;9.77;4.83;;;-1.00;99.90;;;;;;2059519;28;20241;-83
2023/11/29 00:15:32;;;;;;;7.22;4.30;;;-1.00;99.90;;;;;;2060550;28;20280;-83
2023/11/29 00:16:35;;;;;;;8.43;4.63;;;-1.00;99.90;;;;;;2063867;28;20239;-84
2023/11/29 00:17:35;;;;;;;5.78;3.85;;;-0.80;99.90;;;;;;2063593;28;20231;-83
2023/11/29 00:18:36;;;;;;;6.63;3.63;;;-0.90;99.90;;;;;;2068303;28;20325;-85
2023/11/29 00:19:37;;;;;;;7.72;4.50;;;-0.90;99.90;;;;;;2065330;28;20316;-85
2023/11/29 00:20:38;;;;;;;6.25;3.92;;;-0.90;99.90;;;;;;2062102;28;20703;-85
2023/11/29 00:21:43;;;;;;;7.00;5.03;;;-0.90;99.90;;;;;;2078702;28;20279;-84
2023/11/29 00:22:44;;;;;;;6.70;4.05;;;-0.80;99.90;;;;;;2065010;28;20230;-84
2023/11/29 00:23:44;;;;;;;7.90;4.23;;;-0.80;99.90;;;;;;2067505;28;20262;-84
2023/11/29 00:24:48;;;;;;;8.33;3.87;;;-0.80;99.90;;;;;;2077490;28;20267;-84
2023/11/29 00:25:49;;;;;;;8.35;4.38;;;-0.80;99.90;;;;;;2075998;28;20237;-83
2023/11/29 00:26:50;;;;;;;6.57;3.90;;;-0.70;99.90;;;;;;2088293;28;20189;-83
2023/11/29 00:27:50;;;;;;;6.50;4.20;;;-0.70;99.90;;;;;;2093812;28;20199;-84
2023/11/29 00:28:51;;;;;;;6.97;4.00;;;-0.70;99.90;;;;;;2074384;28;20221;-85
2023/11/29 00:29:52;;;;;;;7.27;4.73;;;-0.70;99.90;;;;;;2065579;28;20237;-85
2023/11/29 00:30:52;;;;;;;7.27;4.60;;;-0.70;99.90;;;;;;2074073;28;20295;-85
2023/11/29 00:31:53;;;;;;;6.87;3.73;;;-0.70;99.90;;;;;;2057564;28;20202;-84
2023/11/29 00:32:55;;;;;;;9.17;5.50;;;-0.70;99.90;;;;;;2063757;28;20194;-84
2023/11/29 00:33:56;;;;;;;7.47;4.70;;;-0.60;99.90;;;;;;2058391;28;20207;-85
2023/11/29 00:34:57;;;;;;;6.00;3.80;;;-0.60;99.90;;;;;;2057784;28;20195;-85
2023/11/29 00:35:58;;;;;;;7.22;3.85;;;-0.50;99.90;;;;;;2065843;28;20754;-85
2023/11/29 00:36:59;;;;;;;7.53;4.43;;;-0.50;99.90;;;;;;2081839;28;20200;-85
2023/11/29 00:38:00;;;;;;;7.88;4.72;;;-0.60;99.90;;;;;;2073200;28;20291;-85
2023/11/29 00:39:01;;;;;;;6.23;4.10;;;-0.60;99.90;;;;;;2072944;28;20204;-85
2023/11/29 00:40:01;;;;;;;7.10;4.78;;;-0.60;99.90;;;;;;2073346;28;20196;-84
2023/11/29 00:41:02;;;;;;;7.77;4.90;;;-0.50;99.90;;;;;;2072899;28;20257;-85
2023/11/29 00:42:03;;;;;;;5.53;4.17;;;-0.50;99.90;;;;;;2073219;28;20205;-86
2023/11/29 00:43:04;;;;;;;6.30;4.18;;;-0.50;99.90;;;;;;2072518;28;20174;-85
2023/11/29 00:44:05;;;;;;;8.57;4.30;;;-0.40;99.90;;;;;;2053776;28;20235;-84
2023/11/29 00:45:06;;;;;;;7.93;3.97;;;-0.50;99.90;;;;;;2053888;28;20191;-84
2023/11/29 00:46:07;;;;;;;8.90;5.10;;;-0.50;99.90;;;;;;2059814;28;20187;-84
2023/11/29 00:47:07;;;;;;;7.33;4.77;;;-0.40;99.90;;;;;;2067191;28;20435;-84
2023/11/29 00:48:08;;;;;;;7.07;3.97;;;-0.40;99.90;;;;;;2080929;28;20192;-84
2023/11/29 00:49:09;;;;;;;6.93;3.70;;;-0.40;99.90;;;;;;2081616;28;20444;-85
2023/11/29 00:50:09;;;;;;;8.03;4.63;;;-0.40;99.90;;;;;;2072617;28;20637;-84
2023/11/29 00:51:10;;;;;;;7.00;4.63;;;-0.40;99.90;;;;;;2069802;28;20242;-84
2023/11/29 00:52:11;;;;;;;8.00;4.30;;;-0.40;99.90;;;;;;2060798;28;20234;-84
2023/11/29 00:53:12;;;;;;;7.60;4.93;;;-0.40;99.90;;;;;;2073045;28;20240;-83
2023/11/29 00:54:13;;;;;;;9.50;5.47;;;-0.40;99.90;;;;;;2064551;28;20309;-85
2023/11/29 00:55:14;;;;;;;5.97;3.47;;;-0.40;99.90;;;;;;2068372;28;20714;-84
2023/11/29 00:56:14;;;;;;;7.70;4.90;;;-0.50;99.90;;;;;;2062876;28;20253;-85
2023/11/29 00:57:15;;;;;;;6.23;3.77;;;-0.50;99.90;;;;;;2073071;28;20226;-84
2023/11/29 00:58:17;;;;;;;6.27;4.10;;;-0.50;99.90;;;;;;2080673;28;20223;-85
2023/11/29 00:59:17;;;;;;;7.20;4.13;;;-0.50;99.90;;;;;;2069863;28;20222;-84
2023/11/29 01:00:18;;;;;;;6.83;4.10;;;-0.50;99.90;;;;;;2065251;28;20246;-85
2023/11/29 01:01:19;;;;;;;6.23;3.90;;;-0.50;99.90;;;;;;2070073;28;20846;-84
2023/11/29 01:02:20;;;;;;;7.28;4.28;;;-0.50;99.90;;;;;;2067294;28;20226;-83
2023/11/29 01:03:20;;;;;;;6.57;3.97;;;-0.40;99.90;;;;;;2069750;28;20703;-85
2023/11/29 01:04:21;;;;;;;4.37;3.33;;;-0.40;99.90;;;;;;2076556;28;20226;-85
2023/11/29 01:05:22;;;;;;;7.03;4.00;;;-0.50;99.90;;;;;;2081114;28;20233;-84
2023/11/29 01:06:22;;;;;;;7.13;3.70;;;-0.40;99.90;;;;;;2077475;28;20228;-83
2023/11/29 01:07:23;;;;;;;6.13;3.83;;;-0.40;99.90;;;;;;2081161;28;20229;-83
2023/11/29 01:08:25;;;;;;;6.17;4.17;;;-0.40;99.90;;;;;;2073574;28;20229;-83
2023/11/29 01:09:26;;;;;;;8.93;5.18;;;-0.40;99.90;;;;;;2065054;28;20288;-83
2023/11/29 01:10:26;;;;;;;7.40;4.77;;;-0.40;99.90;;;;;;2065142;28;20712;-85
2023/11/29 01:11:27;;;;;;;6.60;4.00;;;-0.40;99.90;;;;;;2057248;28;20229;-84
2023/11/29 01:12:28;;;;;;;7.07;5.10;;;-0.40;99.90;;;;;;2074932;28;20229;-84
2023/11/29 01:13:29;;;;;;;8.70;5.80;;;-0.50;99.90;;;;;;2078736;28;20227;-85
2023/11/29 01:14:30;;;;;;;7.38;4.38;;;-0.40;99.90;;;;;;2064476;28;20314;-84
2023/11/29 01:15:31;;;;;;;6.60;4.20;;;-0.40;99.90;;;;;;2057837;28;20238;-84
2023/11/29 01:16:31;;;;;;;7.47;4.50;;;-0.40;99.90;;;;;;2065860;28;20603;-84
2023/11/29 01:17:33;;;;;;;10.07;5.77;;;-0.40;99.90;;;;;;2058010;28;20335;-84
2023/11/29 01:18:33;;;;;;;7.53;4.47;;;-0.40;99.90;;;;;;2065779;28;20241;-84
2023/11/29 01:19:34;;;;;;;5.07;3.47;;;-0.30;99.90;;;;;;2066933;28;20266;-84
2023/11/29 01:20:35;;;;;;;6.50;4.20;;;-0.40;99.90;;;;;;2063781;28;20262;-85
2023/11/29 01:21:38;;;;;;;8.55;4.90;;;-0.40;99.90;;;;;;2061558;28;20330;-84
2023/11/29 01:22:39;;;;;;;7.10;4.30;;;-0.30;99.90;;;;;;2064208;28;20297;-86
2023/11/29 01:23:40;;;;;;;7.53;4.93;;;-0.30;99.90;;;;;;2066691;28;20226;-85
2023/11/29 01:24:40;;;;;;;8.65;5.30;;;-0.30;99.90;;;;;;2068188;28;20229;-85
2023/11/29 01:25:41;;;;;;;8.33;5.23;;;-0.30;99.90;;;;;;2068784;28;20309;-84
2023/11/29 01:26:42;;;;;;;7.67;4.87;;;-0.40;99.90;;;;;;2074162;28;20691;-84
2023/11/29 01:27:42;;;;;;;9.20;5.17;;;-0.50;99.90;;;;;;2069072;28;20285;-83
2023/11/29 01:28:43;;;;;;;6.50;4.20;;;-0.50;99.90;;;;;;2071140;28;20590;-85
2023/11/29 01:29:44;;;;;;;8.70;4.73;;;-0.60;99.90;;;;;;2088327;28;20220;-85
2023/11/29 01:30:44;;;;;;;6.37;4.17;;;-0.60;99.90;;;;;;2063200;28;20241;-85
2023/11/29 01:31:45;;;;;;;6.90;4.10;;;-0.60;99.90;;;;;;2061349;28;20239;-84
2023/11/29 01:32:46;;;;;;;5.90;3.70;;;-0.60;99.90;;;;;;2065493;28;20238;-84
2023/11/29 01:33:46;;;;;;;5.50;3.63;;;-0.60;99.90;;;;;;2059073;28;20261;-85
2023/11/29 01:34:47;;;;;;;8.87;5.20;;;-0.60;99.90;;;;;;2056902;28;20258;-85
2023/11/29 01:35:48;;;;;;;8.60;4.70;;;-0.50;99.90;;;;;;2060008;28;20255;-85
2023/11/29 01:36:49;;;;;;;9.63;5.57;;;-0.60;99.90;;;;;;2050292;28;20262;-84
2023/11/29 01:37:49;;;;;;;7.77;5.63;;;-0.50;99.90;;;;;;2056528;28;20524;-82
2023/11/29 01:38:50;;;;;;;7.80;4.57;;;-0.60;99.90;;;;;;2074463;28;20231;-83
2023/11/29 01:39:51;;;;;;;9.13;5.40;;;-0.70;99.90;;;;;;2069641;28;20729;-84
2023/11/29 01:40:52;;;;;;;8.33;4.43;;;-0.60;99.90;;;;;;2061051;28;20283;-85
2023/11/29 01:41:53;;;;;;;7.30;4.43;;;-0.70;99.90;;;;;;2066476;28;20224;-86
2023/11/29 01:42:53;;;;;;;7.23;4.40;;;-0.70;99.90;;;;;;2065545;28;20674;-85
2023/11/29 01:43:55;;;;;;;6.17;4.43;;;-0.60;99.90;;;;;;2082759;28;20236;-84
2023/11/29 01:44:55;;;;;;;8.95;5.47;;;-0.50;99.90;;;;;;2089683;28;20180;-84
2023/11/29 01:45:56;;;;;;;7.07;4.73;;;-0.50;99.90;;;;;;2090509;28;20267;-84
2023/11/29 01:46:57;;;;;;;8.67;5.10;;;-0.50;99.90;;;;;;2074017;28;20201;-84
2023/11/29 01:47:58;;;;;;;9.67;6.03;;;-0.40;99.90;;;;;;2065616;28;20265;-84
2023/11/29 01:48:59;;;;;;;8.45;5.07;;;-0.40;99.90;;;;;;2074477;28;20233;-83
2023/11/29 01:50:05;;;;;;;8.68;4.68;;;-0.50;99.90;;;;;;2080847;28;20189;-84
2023/11/29 01:51:08;;;;;;;8.13;5.07;;;-0.60;99.90;;;;;;2061334;28;20254;-85
2023/11/29 01:52:11;;;;;;;7.82;5.28;;;-0.60;99.90;;;;;;2063579;28;20182;-85
2023/11/29 01:53:13;;;;;;;8.15;4.60;;;-0.70;99.90;;;;;;2054843;28;20234;-82
2023/11/29 01:54:13;;;;;;;7.43;4.20;;;-0.70;99.90;;;;;;2073852;28;20628;-84
2023/11/29 01:55:18;;;;;;;6.30;4.20;;;-0.70;99.90;;;;;;2058058;28;20237;-85
2023/11/29 01:56:21;;;;;;;8.73;4.72;;;-0.60;99.90;;;;;;2060324;28;20552;-84
2023/11/29 01:57:22;;;;;;;6.70;4.63;;;-0.50;99.90;;;;;;2067664;28;20373;-85
2023/11/29 01:58:26;;;;;;;5.38;3.90;;;-0.50;99.90;;;;;;2066798;28;20234;-83
2023/11/29 01:59:27;;;;;;;6.85;4.00;;;-0.60;99.90;;;;;;2063060;28;20242;-83
2023/11/29 02:00:28;;;;;;;6.00;3.95;;;-0.50;99.90;;;;;;2072744;28;20244;-84
2023/11/29 02:01:28;;;;;;;7.33;4.47;;;-0.50;99.90;;;;;;2064483;28;20256;-83
2023/11/29 02:02:29;;;;;;;6.43;4.47;;;-0.60;99.90;;;;;;2070227;28;20237;-83
2023/11/29 02:03:30;;;;;;;6.65;4.30;;;-0.60;99.90;;;;;;2064333;28;20232;-84
2023/11/29 02:04:31;;;;;;;7.07;5.30;;;-0.60;99.90;;;;;;2065602;28;20845;-85
2023/11/29 02:05:32;;;;;;;6.37;4.23;;;-0.60;99.90;;;;;;2070892;28;20229;-83
2023/11/29 02:06:33;;;;;;;6.33;4.00;;;-0.70;99.90;;;;;;2081527;28;20320;-84
2023/11/29 02:07:35;;;;;;;6.15;3.70;;;-0.70;99.90;;;;;;2072949;28;20233;-85
2023/11/29 02:08:36;;;;;;;7.95;3.78;;;-0.70;99.90;;;;;;2064348;28;20317;-84
2023/11/29 02:09:38;;;;;;;5.70;3.97;;;-0.70;99.90;;;;;;2072665;28;20229;-85
2023/11/29 02:10:39;;;;;;;4.05;3.05;;;-0.70;99.90;;;;;;2065849;28;20269;-83
2023/11/29 02:11:41;;;;;;;4.93;3.25;;;-0.60;99.90;;;;;;2064635;28;20234;-84
2023/11/29 02:12:43;;;;;;;4.95;2.65;;;-0.70;99.90;;;;;;2069443;28;20237;-84
2023/11/29 02:13:43;;;;;;;4.97;2.85;;;-0.70;99.90;;;;;;2080906;28;20225;-85
2023/11/29 02:14:44;;;;;;;4.50;3.00;;;-0.80;99.90;;;;;;2066950;28;20365;-84
2023/11/29 02:15:45;;;;;;;4.97;3.60;;;-0.90;99.90;;;;;;2069303;28;20252;-84
2023/11/29 02:16:45;;;;;;;6.90;3.97;;;-0.90;99.90;;;;;;2072071;28;20229;-84
2023/11/29 02:17:46;;;;;;;3.83;2.90;;;-0.90;99.90;;;;;;2079914;28;20255;-85
2023/11/29 02:18:47;;;;;;;3.83;3.00;;;-1.00;99.90;;;;;;2076740;28;20228;-85
2023/11/29 02:19:48;;;;;;;5.07;2.87;;;-1.00;99.90;;;;;;2085312;28;20504;-85
2023/11/29 02:20:48;;;;;;;5.63;3.20;;;-1.10;99.90;;;;;;2079799;28;20319;-84
2023/11/29 02:21:49;;;;;;;5.57;3.13;;;-1.10;99.90;;;;;;2069940;28;20776;-83
2023/11/29 02:23:04;;;;;;;4.70;2.93;;;-1.10;99.90;;;;;;2063357;28;20194;-83
2023/11/29 02:24:16;;;;;;;2.97;2.35;;;-1.20;99.90;;;;;;2060050;28;20200;-83
2023/11/29 02:25:17;;;;;;;3.92;2.47;;;-1.20;99.90;;;;;;2062706;28;20226;-84
2023/11/29 02:26:17;;;;;;;3.33;2.47;;;-1.30;99.90;;;;;;2072846;28;20253;-84
2023/11/29 02:27:18;;;;;;;3.17;2.27;;;-1.40;99.90;;;;;;2073100;28;20236;-84
2023/11/29 02:28:19;;;;;;;4.07;2.83;;;-1.40;99.90;;;;;;2080930;28;20228;-83
2023/11/29 02:29:19;;;;;;;4.47;2.97;;;-1.40;99.90;;;;;;2072218;28;20233;-85
2023/11/29 02:30:20;;;;;;;4.10;2.70;;;-1.40;99.90;;;;;;2073150;28;20244;-84
2023/11/29 02:31:21;;;;;;;4.10;2.60;;;-1.40;99.90;;;;;;2080786;28;20237;-84
2023/11/29 02:32:21;;;;;;;3.80;2.63;;;-1.40;99.90;;;;;;2073283;28;20328;-84
2023/11/29 02:33:22;;;;;;;4.40;2.60;;;-1.40;99.90;;;;;;2064756;28;20234;-84
2023/11/29 02:34:23;;;;;;;3.67;2.67;;;-1.50;99.90;;;;;;2074069;28;20229;-84
2023/11/29 02:35:23;;;;;;;3.83;2.90;;;-1.50;99.90;;;;;;2071654;28;20232;-84
2023/11/29 02:36:24;;;;;;;3.13;2.50;;;-1.60;99.90;;;;;;2073942;28;20294;-83
2023/11/29 02:37:25;;;;;;;3.47;2.40;;;-1.60;99.90;;;;;;2064568;28;20233;-84
2023/11/29 02:38:26;;;;;;;5.30;2.73;;;-1.60;99.90;;;;;;2054662;28;20230;-84
2023/11/29 02:39:26;;;;;;;5.07;3.00;;;-1.70;99.90;;;;;;2056205;28;20230;-83
2023/11/29 02:40:27;;;;;;;3.33;2.20;;;-1.70;99.90;;;;;;2067084;28;20237;-84
2023/11/29 02:41:28;;;;;;;3.83;2.60;;;-1.70;99.90;;;;;;2052973;28;20238;-85
2023/11/29 02:42:28;;;;;;;3.40;2.60;;;-1.70;99.90;;;;;;2071562;28;20229;-84
2023/11/29 02:43:29;;;;;;;2.43;2.10;;;-1.70;99.90;;;;;;2072421;28;20226;-84
2023/11/29 02:44:30;;;;;;;3.03;2.00;;;-1.80;99.90;;;;;;2060956;28;20227;-84
2023/11/29 02:45:32;;;;;;;3.23;2.00;;;-1.80;99.90;;;;;;2060344;28;20299;-84
2023/11/29 02:46:33;;;;;;;4.00;2.65;;;-1.80;99.90;;;;;;2070120;28;20225;-84
2023/11/29 02:47:33;;;;;;;3.00;2.10;;;-1.80;99.90;;;;;;2072617;28;20234;-83
2023/11/29 02:48:34;;;;;;;3.80;2.63;;;-1.80;99.90;;;;;;2070815;28;20221;-84
2023/11/29 02:49:35;;;;;;;5.30;3.00;;;-1.80;99.90;;;;;;2058258;28;20218;-85
2023/11/29 02:50:35;;;;;;;3.40;2.10;;;-1.80;99.90;;;;;;2071157;28;20295;-83
2023/11/29 02:51:36;;;;;;;3.77;2.30;;;-1.80;99.90;;;;;;2072248;28;20240;-85
2023/11/29 02:52:37;;;;;;;3.70;2.90;;;-1.80;99.90;;;;;;2082006;28;20229;-84
2023/11/29 02:53:37;;;;;;;3.47;2.20;;;-1.90;99.90;;;;;;2072776;28;20221;-85
2023/11/29 02:54:38;;;;;;;2.63;2.30;;;-2.00;99.90;;;;;;2070864;28;20237;-84
2023/11/29 02:55:39;;;;;;;4.43;2.90;;;-2.00;99.90;;;;;;2067952;28;20229;-84
2023/11/29 02:56:39;;;;;;;3.20;2.20;;;-2.00;99.90;;;;;;2068075;28;20225;-84
2023/11/29 02:57:40;;;;;;;6.47;2.80;;;-2.00;99.90;;;;;;2055933;28;20720;-84
2023/11/29 02:58:41;;;;;;;2.67;2.03;;;-2.00;99.90;;;;;;2062277;28;20229;-83
2023/11/29 02:59:41;;;;;;;3.57;2.20;;;-2.00;99.90;;;;;;2063544;28;20237;-83
2023/11/29 03:00:42;;;;;;;3.87;2.47;;;-2.00;99.90;;;;;;2063749;28;20241;-83
2023/11/29 03:01:43;;;;;;;4.00;2.30;;;-2.10;99.90;;;;;;2077480;28;20249;-83
2023/11/29 03:02:44;;;;;;;2.70;2.30;;;-2.10;99.90;;;;;;2071492;28;20280;-84
2023/11/29 03:03:46;;;;;;;3.42;2.17;;;-2.00;99.90;;;;;;2061080;28;20670;-83
2023/11/29 03:04:49;;;;;;;2.85;2.20;;;-2.00;99.90;;;;;;2071709;28;20236;-83
2023/11/29 03:05:49;;;;;;;2.97;2.17;;;-2.00;99.90;;;;;;2071441;28;20232;-82
2023/11/29 03:06:51;;;;;;;2.87;2.00;;;-2.10;99.90;;;;;;2063896;28;20314;-83
2023/11/29 03:07:51;;;;;;;3.03;1.95;;;-2.10;99.90;;;;;;2056064;28;20273;-84
2023/11/29 03:08:52;;;;;;;7.07;2.23;;;-2.10;99.90;;;;;;2063338;28;20949;-84
2023/11/29 03:09:53;;;;;;;3.23;2.00;;;-2.20;99.90;;;;;;2077507;28;20642;-82
2023/11/29 03:10:54;;;;;;;2.33;2.03;;;-2.20;99.90;;;;;;2078881;28;20184;-82
2023/11/29 03:11:55;;;;;;;3.78;2.42;;;-2.30;99.90;;;;;;2065782;28;20269;-84
2023/11/29 03:12:55;;;;;;;3.50;2.10;;;-2.30;99.90;;;;;;2070707;28;20211;-87
2023/11/29 03:13:56;;;;;;;3.80;2.30;;;-2.30;99.90;;;;;;2070067;28;20194;-85
2023/11/29 03:14:57;;;;;;;3.70;2.40;;;-2.30;99.90;;;;;;2070996;28;20660;-83
2023/11/29 03:15:59;;;;;;;3.37;2.50;;;-2.40;99.90;;;;;;2080017;28;20266;-83
2023/11/29 03:17:00;;;;;;;2.67;1.80;;;-2.50;99.90;;;;;;2071044;28;20191;-83
2023/11/29 03:18:01;;;;;;;3.40;1.95;;;-2.50;99.90;;;;;;2056861;28;20199;-85
2023/11/29 03:19:02;;;;;;;2.93;2.13;;;-2.50;99.90;;;;;;2067016;28;20225;-84
2023/11/29 03:20:03;;;;;;;3.60;2.33;;;-2.40;99.90;;;;;;2076436;28;20218;-84
2023/11/29 03:21:04;;;;;;;2.65;2.20;;;-2.40;99.90;;;;;;2077815;28;20181;-84
2023/11/29 03:22:05;;;;;;;3.70;2.75;;;-2.40;99.90;;;;;;2072345;28;20217;-85
2023/11/29 03:23:05;;;;;;;2.70;2.10;;;-2.40;99.90;;;;;;2070918;28;20195;-85
2023/11/29 03:24:06;;;;;;;3.40;2.00;;;-2.40;99.90;;;;;;2070922;28;20205;-85
2023/11/29 03:25:07;;;;;;;2.83;2.47;;;-2.40;99.90;;;;;;2056418;28;20186;-85
2023/11/29 03:26:09;;;;;;;2.15;1.60;;;-2.60;99.90;;;;;;2059643;28;20202;-86
2023/11/29 03:27:10;;;;;;;3.95;2.35;;;-2.70;99.90;;;;;;2061544;28;20237;-84
2023/11/29 03:28:10;;;;;;;3.07;2.10;;;-2.80;99.90;;;;;;2071196;28;20221;-85
2023/11/29 03:29:11;;;;;;;3.67;2.57;;;-2.80;99.90;;;;;;2054990;28;20242;-83
2023/11/29 03:30:12;;;;;;;3.77;2.50;;;-2.80;99.90;;;;;;2073427;28;20267;-83
2023/11/29 03:31:13;;;;;;;4.03;2.85;;;-2.70;99.90;;;;;;2072666;28;20275;-85
2023/11/29 03:32:14;;;;;;;3.60;2.33;;;-2.70;99.90;;;;;;2056979;28;20238;-84
2023/11/29 03:33:14;;;;;;;3.20;2.50;;;-2.70;99.90;;;;;;2052755;28;20235;-84
2023/11/29 03:34:16;;;;;;;2.67;2.20;;;-2.70;99.90;;;;;;2072439;28;20667;-85
2023/11/29 03:35:16;;;;;;;5.50;3.63;;;-2.80;99.90;;;;;;2072524;28;20237;-84
2023/11/29 03:36:17;;;;;;;4.83;3.67;;;-2.80;99.90;;;;;;2065549;28;20277;-84
2023/11/29 03:37:18;;;;;;;5.83;3.70;;;-2.80;99.90;;;;;;2068651;28;20244;-84
2023/11/29 03:38:18;;;;;;;2.77;2.40;;;-2.70;99.90;;;;;;2082849;28;20627;-83
2023/11/29 03:39:19;;;;;;;3.27;2.70;;;-2.70;99.90;;;;;;2080546;28;20251;-84
2023/11/29 03:40:20;;;;;;;6.17;2.67;;;-2.60;99.90;;;;;;2067075;28;20237;-83
2023/11/29 03:41:21;;;;;;;4.30;2.93;;;-2.60;99.90;;;;;;2056516;28;20264;-84
2023/11/29 03:42:21;;;;;;;4.30;2.63;;;-2.60;99.90;;;;;;2048217;28;20289;-83
2023/11/29 03:43:22;;;;;;;4.37;2.73;;;-2.70;99.90;;;;;;2044033;28;20232;-85
2023/11/29 03:44:23;;;;;;;4.23;2.80;;;-2.70;99.90;;;;;;2061311;28;20241;-84
2023/11/29 03:45:24;;;;;;;5.73;3.03;;;-2.70;99.90;;;;;;2069742;28;20336;-84
2023/11/29 03:46:24;;;;;;;3.47;2.78;;;-2.70;99.90;;;;;;2065050;28;20284;-84
2023/11/29 03:47:25;;;;;;;4.27;2.93;;;-2.70;99.90;;;;;;2073571;28;20670;-84
2023/11/29 03:48:26;;;;;;;3.73;3.17;;;-2.50;99.90;;;;;;2061662;28;20248;-84
2023/11/29 03:49:26;;;;;;;4.30;2.60;;;-2.50;99.90;;;;;;2065376;28;20229;-83
2023/11/29 03:50:27;;;;;;;2.80;2.23;;;-2.50;99.90;;;;;;2069787;28;20228;-84
2023/11/29 03:51:28;;;;;;;2.80;2.20;;;-2.50;99.90;;;;;;2073003;28;20679;-84
2023/11/29 03:52:28;;;;;;;3.77;2.53;;;-2.50;99.90;;;;;;2064538;28;20230;-84
2023/11/29 03:53:29;;;;;;;4.63;2.40;;;-2.60;99.90;;;;;;2072579;28;20229;-84
2023/11/29 03:54:30;;;;;;;3.40;2.60;;;-2.50;99.90;;;;;;2063930;28;20221;-83
2023/11/29 03:55:31;;;;;;;4.20;2.73;;;-2.40;99.90;;;;;;2064018;28;20252;-84
2023/11/29 03:56:31;;;;;;;4.93;2.60;;;-2.40;99.90;;;;;;2079077;28;20259;-85
2023/11/29 03:57:34;;;;;;;3.40;2.37;;;-2.40;99.90;;;;;;2079303;28;20311;-85
2023/11/29 03:58:35;;;;;;;3.40;2.35;;;-2.30;99.90;;;;;;2064437;28;20272;-82
2023/11/29 03:59:35;;;;;;;2.83;2.33;;;-2.30;99.90;;;;;;2052114;28;20235;-85
2023/11/29 04:00:36;;;;;;;4.37;2.77;;;-2.20;99.90;;;;;;2071630;28;20256;-83
2023/11/29 04:01:37;;;;;;;4.23;2.70;;;-2.20;99.90;;;;;;2075883;28;20851;-84
2023/11/29 04:02:38;;;;;;;3.87;2.63;;;-2.10;99.90;;;;;;2068798;28;20225;-85
2023/11/29 04:03:38;;;;;;;4.27;2.63;;;-2.10;99.90;;;;;;2063395;28;20249;-83
2023/11/29 04:04:39;;;;;;;3.73;3.00;;;-2.10;99.90;;;;;;2064293;28;20222;-84
2023/11/29 04:05:40;;;;;;;5.15;2.67;;;-2.10;99.90;;;;;;2072397;28;20230;-85
2023/11/29 04:06:41;;;;;;;3.10;2.30;;;-2.00;99.90;;;;;;2065653;28;20225;-85
2023/11/29 04:07:41;;;;;;;2.37;2.07;;;-2.20;99.90;;;;;;2067773;28;20230;-84
2023/11/29 04:08:42;;;;;;;4.03;2.33;;;-2.20;99.90;;;;;;2075391;28;20715;-83
2023/11/29 04:09:43;;;;;;;3.93;2.77;;;-2.30;99.90;;;;;;2072266;28;20225;-85
2023/11/29 04:10:43;;;;;;;3.50;2.23;;;-2.30;99.90;;;;;;2071716;28;20225;-84
2023/11/29 04:11:48;;;;;;;4.67;2.93;;;-2.20;99.90;;;;;;2072116;28;20623;-84
2023/11/29 04:12:48;;;;;;;4.38;2.90;;;-2.20;99.90;;;;;;2064711;28;20230;-83
2023/11/29 04:13:49;;;;;;;3.13;1.80;;;-2.10;99.90;;;;;;2066138;28;20260;-81
2023/11/29 04:14:50;;;;;;;4.20;2.83;;;-2.30;99.90;;;;;;2072394;28;20594;-85
2023/11/29 04:15:50;;;;;;;3.67;2.87;;;-2.30;99.90;;;;;;2066853;28;20475;-83
2023/11/29 04:16:51;;;;;;;4.43;2.90;;;-2.30;99.90;;;;;;2075489;28;20236;-83
2023/11/29 04:17:52;;;;;;;4.30;2.70;;;-2.30;99.90;;;;;;2075004;28;20193;-83
2023/11/29 04:18:54;;;;;;;4.10;3.10;;;-2.40;99.90;;;;;;2064167;28;20463;-84
2023/11/29 04:19:54;;;;;;;3.97;3.00;;;-2.40;99.90;;;;;;2056028;28;20236;-82
2023/11/29 04:20:57;;;;;;;3.43;2.00;;;-2.40;99.90;;;;;;2062248;28;20272;-82
2023/11/29 04:21:57;;;;;;;4.30;2.97;;;-2.40;99.90;;;;;;2064890;28;20190;-85
2023/11/29 04:22:58;;;;;;;3.27;2.13;;;-2.50;99.90;;;;;;2071438;28;20193;-84
2023/11/29 04:23:59;;;;;;;3.70;2.60;;;-2.50;99.90;;;;;;2058195;28;20633;-84
2023/11/29 04:25:00;;;;;;;4.97;2.85;;;-2.50;99.90;;;;;;2071857;28;20192;-84
2023/11/29 04:26:00;;;;;;;3.40;2.50;;;-2.50;99.90;;;;;;2069649;28;20219;-83
2023/11/29 04:27:01;;;;;;;3.40;2.80;;;-2.50;99.90;;;;;;2065033;28;20197;-83
2023/11/29 04:28:03;;;;;;;3.67;2.80;;;-2.50;99.90;;;;;;2071965;28;20186;-84
2023/11/29 04:29:09;;;;;;;4.60;2.80;;;-2.60;99.90;;;;;;2061084;28;20789;-84
2023/11/29 04:30:10;;;;;;;3.20;2.45;;;-2.60;99.90;;;;;;2071858;28;20228;-84
2023/11/29 04:31:13;;;;;;;3.07;2.27;;;-2.70;99.90;;;;;;2066613;28;20231;-83
2023/11/29 04:32:14;;;;;;;3.00;2.53;;;-2.70;99.90;;;;;;2068685;28;20465;-84
2023/11/29 04:33:15;;;;;;;4.00;2.77;;;-2.70;99.90;;;;;;2063444;28;20286;-84
2023/11/29 04:34:15;;;;;;;3.60;2.60;;;-2.70;99.90;;;;;;2077972;28;20296;-83
2023/11/29 04:35:16;;;;;;;3.40;2.53;;;-2.70;99.90;;;;;;2060125;28;20312;-84
2023/11/29 04:36:17;;;;;;;3.47;2.60;;;-2.80;99.90;;;;;;2065769;28;20299;-84
2023/11/29 04:37:18;;;;;;;3.72;2.83;;;-2.90;99.90;;;;;;2072281;28;20819;-84
2023/11/29 04:38:18;;;;;;;4.93;3.37;;;-3.00;99.90;;;;;;2067224;28;20264;-83
2023/11/29 04:39:19;;;;;;;5.30;3.47;;;-3.10;99.90;;;;;;2062630;28;20244;-84
2023/11/29 04:40:20;;;;;;;4.00;2.70;;;-3.10;99.90;;;;;;2056529;28;20240;-83
2023/11/29 04:41:22;;;;;;;2.50;2.30;;;-3.10;99.90;;;;;;2056187;28;20365;-84
2023/11/29 04:42:22;;;;;;;3.88;2.58;;;-3.30;99.90;;;;;;2064469;28;20311;-83
2023/11/29 04:43:23;;;;;;;4.57;3.30;;;-3.30;99.90;;;;;;2069037;28;20690;-84
2023/11/29 04:44:24;;;;;;;4.63;3.13;;;-3.30;99.90;;;;;;2072755;28;20229;-83
2023/11/29 04:45:24;;;;;;;3.83;3.03;;;-3.30;99.90;;;;;;2073112;28;20232;-83
2023/11/29 04:46:25;;;;;;;4.50;2.40;;;-3.30;99.90;;;;;;2065163;28;20251;-83
2023/11/29 04:47:25;;;;;;;3.83;2.80;;;-3.30;99.90;;;;;;2065525;28;20240;-84
2023/11/29 04:48:26;;;;;;;3.87;2.40;;;-3.30;99.90;;;;;;2073788;28;20235;-84
2023/11/29 04:49:27;;;;;;;3.70;2.90;;;-3.30;99.90;;;;;;2070461;28;20225;-83
2023/11/29 04:50:28;;;;;;;5.70;3.50;;;-3.20;99.90;;;;;;2059980;28;20320;-82
2023/11/29 04:51:28;;;;;;;5.37;3.27;;;-3.20;99.90;;;;;;2063338;28;20234;-84
2023/11/29 04:52:30;;;;;;;5.93;3.33;;;-3.10;99.90;;;;;;2062768;28;20370;-84
2023/11/29 04:53:31;;;;;;;4.55;3.13;;;-3.10;99.90;;;;;;2062441;28;20229;-83
2023/11/29 04:54:32;;;;;;;4.07;2.93;;;-3.10;99.90;;;;;;2062946;28;20249;-84
2023/11/29 04:55:32;;;;;;;3.70;2.47;;;-3.10;99.90;;;;;;2067368;28;20235;-85
2023/11/29 04:56:33;;;;;;;3.50;2.60;;;-3.00;99.90;;;;;;2069292;28;20225;-86
2023/11/29 04:57:34;;;;;;;5.10;3.28;;;-3.00;99.90;;;;;;2077490;28;20216;-85
2023/11/29 04:58:39;;;;;;;4.47;3.03;;;-2.90;99.90;;;;;;2066538;28;20237;-83
2023/11/29 04:59:40;;;;;;;5.30;3.67;;;-3.00;99.90;;;;;;2050246;28;20227;-82
2023/11/29 05:00:41;;;;;;;4.13;2.97;;;-3.10;99.90;;;;;;2062996;28;20698;-83
2023/11/29 05:01:41;;;;;;;4.33;3.07;;;-3.00;99.90;;;;;;2073760;28;20236;-82
2023/11/29 05:02:42;;;;;;;5.00;3.47;;;-3.00;99.90;;;;;;2067874;28;20229;-83
2023/11/29 05:03:43;;;;;;;5.63;3.53;;;-2.90;99.90;;;;;;2073513;28;20233;-83
2023/11/29 05:04:44;;;;;;;6.00;4.03;;;-2.90;99.90;;;;;;2060462;28;20278;-83
2023/11/29 05:05:46;;;;;;;6.13;4.35;;;-2.80;99.90;;;;;;2065022;28;20238;-83
2023/11/29 05:06:47;;;;;;;6.90;4.65;;;-2.80;99.90;;;;;;2064876;28;20283;-82
2023/11/29 05:07:47;;;;;;;4.87;3.13;;;-2.70;99.90;;;;;;2058693;28;20219;-83
2023/11/29 05:08:48;;;;;;;4.27;3.10;;;-2.70;99.90;;;;;;2056570;28;20313;-83
2023/11/29 05:09:49;;;;;;;3.53;2.50;;;-2.70;99.90;;;;;;2059144;28;20223;-83
2023/11/29 05:10:49;;;;;;;5.50;3.63;;;-2.70;99.90;;;;;;2061123;28;20696;-82
2023/11/29 05:11:50;;;;;;;4.43;2.97;;;-2.60;99.90;;;;;;2048847;28;20243;-82
2023/11/29 05:12:52;;;;;;;3.80;3.27;;;-2.70;99.90;;;;;;2057174;28;20233;-82
2023/11/29 05:13:52;;;;;;;4.03;2.42;;;-2.60;99.90;;;;;;2065579;28;20195;-83
2023/11/29 05:14:53;;;;;;;4.10;2.80;;;-2.60;99.90;;;;;;2057178;28;20197;-83
2023/11/29 05:15:54;;;;;;;2.23;1.43;;;-2.70;99.90;;;;;;2063682;28;20288;-83
2023/11/29 05:16:54;;;;;;;4.00;2.53;;;-2.60;99.90;;;;;;2052129;28;20206;-83
2023/11/29 05:17:55;;;;;;;5.77;3.63;;;-2.70;99.90;;;;;;2058083;28;20199;-82